createdAt,value
2017-07-29T00:01:06.988Z,973.69
2017-07-29T00:02:17.255Z,973.66
2017-07-29T00:03:27.520Z,973.68
2017-07-29T00:04:37.536Z,973.66
2017-07-29T00:05:47.519Z,973.69
2017-07-29T00:06:57.788Z,973.69
2017-07-29T00:08:07.736Z,973.66
2017-07-29T00:09:18.004Z,973.67
2017-07-29T00:10:28.270Z,973.7
2017-07-29T00:11:38.220Z,973.68
2017-07-29T00:12:48.488Z,973.7
2017-07-29T00:13:58.756Z,973.71
2017-07-29T00:15:09.024Z,973.68
2017-07-29T00:16:19.291Z,973.68
2017-07-29T00:17:29.556Z,973.71
2017-07-29T00:18:39.815Z,973.72
2017-07-29T00:19:49.766Z,973.73
2017-07-29T00:21:00.038Z,973.68
2017-07-29T00:22:09.990Z,973.67
2017-07-29T00:23:20.257Z,973.66
2017-07-29T00:24:30.525Z,973.7
2017-07-29T00:25:40.790Z,973.71
2017-07-29T00:26:51.059Z,973.69
2017-07-29T00:28:01.426Z,973.71
2017-07-29T00:29:11.692Z,973.78
2017-07-29T00:30:21.966Z,973.74
2017-07-29T00:31:32.238Z,973.79
2017-07-29T00:32:42.506Z,973.81
2017-07-29T00:33:52.781Z,973.77
2017-07-29T00:35:03.046Z,973.8
2017-07-29T00:36:13.312Z,973.78
2017-07-29T00:37:23.270Z,973.79
2017-07-29T00:38:33.226Z,973.81
2017-07-29T00:39:43.507Z,973.8
2017-07-29T00:40:53.784Z,973.83
2017-07-29T00:42:04.049Z,973.79
2017-07-29T00:43:14.002Z,973.79
2017-07-29T00:44:24.266Z,973.78
2017-07-29T00:45:33.905Z,973.75
2017-07-29T00:46:44.176Z,973.79
2017-07-29T00:47:54.439Z,973.75
2017-07-29T00:49:04.394Z,973.75
2017-07-29T00:50:14.346Z,973.78
2017-07-29T00:51:24.294Z,973.79
2017-07-29T00:52:34.559Z,973.84
2017-07-29T00:53:44.831Z,973.83
2017-07-29T00:54:55.098Z,973.86
2017-07-29T00:56:05.046Z,973.81
2017-07-29T00:57:15.004Z,973.81
2017-07-29T00:58:25.276Z,973.82
2017-07-29T00:59:35.543Z,973.85
2017-07-29T01:00:45.817Z,973.79
2017-07-29T01:01:55.768Z,973.82
2017-07-29T01:03:05.400Z,973.81
2017-07-29T01:04:15.040Z,973.75
2017-07-29T01:05:24.992Z,973.83
2017-07-29T01:06:35.260Z,973.79
2017-07-29T01:07:45.538Z,973.8
2017-07-29T01:08:55.801Z,973.81
2017-07-29T01:10:05.750Z,973.86
2017-07-29T01:11:15.704Z,973.83
2017-07-29T01:12:25.659Z,973.82
2017-07-29T01:13:35.924Z,973.83
2017-07-29T01:14:46.195Z,973.82
2017-07-29T01:15:56.458Z,973.86
2017-07-29T01:17:06.098Z,973.83
2017-07-29T01:18:16.371Z,973.83
2017-07-29T01:19:26.639Z,973.83
2017-07-29T01:20:36.906Z,973.8
2017-07-29T01:21:46.857Z,973.8
2017-07-29T01:22:57.129Z,973.8
2017-07-29T01:24:07.084Z,973.83
2017-07-29T01:25:17.352Z,973.83
2017-07-29T01:26:27.621Z,973.81
2017-07-29T01:27:37.578Z,973.81
2017-07-29T01:28:47.848Z,973.84
2017-07-29T01:29:58.112Z,973.8
2017-07-29T01:31:07.751Z,973.81
2017-07-29T01:32:18.026Z,973.77
2017-07-29T01:33:28.295Z,973.77
2017-07-29T01:34:38.570Z,973.8
2017-07-29T01:35:48.838Z,973.84
2017-07-29T01:36:59.100Z,973.85
2017-07-29T01:38:09.376Z,973.85
2017-07-29T01:39:19.327Z,973.84
2017-07-29T01:40:29.591Z,973.85
2017-07-29T01:41:39.870Z,973.85
2017-07-29T01:42:50.135Z,973.79
2017-07-29T01:44:00.088Z,973.82
2017-07-29T01:45:10.357Z,973.86
2017-07-29T01:46:20.306Z,973.78
2017-07-29T01:47:30.594Z,973.81
2017-07-29T01:48:40.871Z,973.81
2017-07-29T01:49:53.140Z,973.8
2017-07-29T01:51:03.408Z,973.84
2017-07-29T01:52:13.359Z,973.82
2017-07-29T01:53:23.630Z,973.85
2017-07-29T01:54:33.894Z,973.85
2017-07-29T01:55:44.159Z,973.83
2017-07-29T01:56:54.435Z,973.82
2017-07-29T01:58:04.708Z,973.85
2017-07-29T01:59:14.662Z,973.85
2017-07-29T02:00:24.929Z,973.82
2017-07-29T02:01:35.200Z,973.84
2017-07-29T02:02:45.468Z,973.82
2017-07-29T02:03:55.733Z,973.83
2017-07-29T02:05:05.683Z,973.81
2017-07-29T02:06:15.635Z,973.83
2017-07-29T02:07:25.608Z,973.89
2017-07-29T02:08:35.873Z,973.87
2017-07-29T02:09:46.135Z,973.86
2017-07-29T02:10:56.088Z,973.87
2017-07-29T02:12:05.725Z,973.88
2017-07-29T02:13:16.139Z,973.88
2017-07-29T02:14:26.409Z,973.85
2017-07-29T02:15:36.678Z,973.9
2017-07-29T02:16:46.950Z,973.91
2017-07-29T02:17:57.212Z,973.9
2017-07-29T02:19:07.166Z,973.94
2017-07-29T02:20:17.436Z,973.91
2017-07-29T02:21:27.701Z,973.91
2017-07-29T02:22:37.340Z,973.89
2017-07-29T02:23:47.609Z,973.86
2017-07-29T02:24:57.874Z,973.89
2017-07-29T02:26:08.164Z,973.92
2017-07-29T02:27:18.427Z,973.91
2017-07-29T02:28:28.376Z,973.89
2017-07-29T02:29:38.640Z,973.88
2017-07-29T02:30:48.902Z,973.88
2017-07-29T02:31:59.188Z,973.88
2017-07-29T02:33:09.465Z,973.87
2017-07-29T02:34:19.417Z,973.86
2017-07-29T02:35:29.685Z,973.85
2017-07-29T02:36:39.645Z,973.85
2017-07-29T02:37:49.912Z,973.86
2017-07-29T02:38:59.877Z,973.79
2017-07-29T02:40:10.142Z,973.79
2017-07-29T02:41:20.414Z,973.8
2017-07-29T02:42:30.368Z,973.79
2017-07-29T02:43:40.631Z,973.82
2017-07-29T02:44:50.908Z,973.8
2017-07-29T02:46:01.172Z,973.87
2017-07-29T02:47:11.434Z,973.81
2017-07-29T02:48:21.702Z,973.79
2017-07-29T02:49:31.968Z,973.83
2017-07-29T02:50:42.237Z,973.85
2017-07-29T02:51:52.510Z,973.82
2017-07-29T02:53:02.790Z,973.8
2017-07-29T02:54:13.066Z,973.82
2017-07-29T02:55:23.329Z,973.8
2017-07-29T02:56:33.601Z,973.84
2017-07-29T02:57:43.553Z,973.8
2017-07-29T02:58:53.817Z,973.85
2017-07-29T03:00:03.764Z,973.85
2017-07-29T03:01:13.726Z,973.84
2017-07-29T03:02:24.011Z,973.84
2017-07-29T03:03:34.277Z,973.8
2017-07-29T03:04:44.544Z,973.85
2017-07-29T03:05:54.495Z,973.86
2017-07-29T03:07:04.758Z,973.81
2017-07-29T03:08:15.028Z,973.83
2017-07-29T03:09:24.664Z,973.83
2017-07-29T03:10:34.932Z,973.84
2017-07-29T03:11:45.201Z,973.82
2017-07-29T03:12:55.463Z,973.86
2017-07-29T03:14:05.098Z,973.81
2017-07-29T03:15:15.366Z,973.85
2017-07-29T03:16:25.630Z,973.83
2017-07-29T03:17:35.897Z,973.85
2017-07-29T03:18:46.166Z,973.79
2017-07-29T03:19:56.436Z,973.89
2017-07-29T03:21:06.389Z,973.84
2017-07-29T03:22:16.656Z,973.82
2017-07-29T03:23:26.928Z,973.84
2017-07-29T03:24:36.878Z,973.88
2017-07-29T03:25:47.152Z,973.93
2017-07-29T03:26:56.792Z,973.9
2017-07-29T03:28:07.069Z,973.9
2017-07-29T03:29:17.337Z,973.91
2017-07-29T03:30:27.602Z,973.93
2017-07-29T03:31:37.889Z,973.9
2017-07-29T03:32:48.162Z,973.93
2017-07-29T03:33:58.119Z,973.9
2017-07-29T03:35:08.392Z,973.92
2017-07-29T03:36:18.350Z,973.94
2017-07-29T03:37:28.619Z,973.94
2017-07-29T03:38:38.581Z,973.95
2017-07-29T03:39:48.843Z,973.95
2017-07-29T03:40:59.110Z,973.97
2017-07-29T03:42:09.061Z,974
2017-07-29T03:43:19.329Z,974.04
2017-07-29T03:44:29.598Z,974.02
2017-07-29T03:45:39.862Z,974.01
2017-07-29T03:46:50.126Z,973.98
2017-07-29T03:48:00.081Z,974
2017-07-29T03:49:10.038Z,974
2017-07-29T03:50:19.989Z,973.99
2017-07-29T03:51:30.264Z,974.04
2017-07-29T03:52:40.537Z,974.01
2017-07-29T03:53:50.490Z,974.01
2017-07-29T03:55:00.453Z,973.94
2017-07-29T03:56:10.086Z,973.98
2017-07-29T03:57:20.045Z,973.97
2017-07-29T03:58:29.991Z,973.96
2017-07-29T03:59:40.261Z,973.98
2017-07-29T04:00:50.528Z,973.99
2017-07-29T04:02:00.796Z,973.98
2017-07-29T04:03:11.084Z,973.99
2017-07-29T04:04:21.354Z,973.98
2017-07-29T04:05:31.306Z,973.97
2017-07-29T04:06:40.952Z,974.02
2017-07-29T04:07:51.218Z,974
2017-07-29T04:09:01.488Z,973.99
2017-07-29T04:10:11.759Z,973.99
2017-07-29T04:11:21.396Z,973.99
2017-07-29T04:12:31.669Z,974.02
2017-07-29T04:13:41.629Z,974.04
2017-07-29T04:14:51.582Z,974.04
2017-07-29T04:16:01.850Z,974
2017-07-29T04:17:12.124Z,974.02
2017-07-29T04:18:22.093Z,974.01
2017-07-29T04:19:32.357Z,974
2017-07-29T04:20:42.628Z,974.03
2017-07-29T04:23:06.087Z,974.01
2017-07-29T04:24:16.359Z,974
2017-07-29T04:25:26.633Z,973.99
2017-07-29T04:26:36.584Z,974.01
2017-07-29T04:27:46.853Z,974
2017-07-29T04:28:57.120Z,974.01
2017-07-29T04:30:07.389Z,973.99
2017-07-29T04:31:17.345Z,974
2017-07-29T04:32:27.614Z,974.04
2017-07-29T04:33:37.876Z,974.04
2017-07-29T04:34:48.147Z,974.02
2017-07-29T04:35:58.419Z,974.03
2017-07-29T04:37:08.688Z,974.02
2017-07-29T04:38:18.647Z,974.01
2017-07-29T04:39:28.923Z,973.98
2017-07-29T04:40:39.194Z,974.02
2017-07-29T04:41:49.463Z,974.05
2017-07-29T04:42:59.418Z,974.02
2017-07-29T04:44:09.695Z,974.03
2017-07-29T04:45:19.961Z,973.99
2017-07-29T04:46:30.231Z,973.97
2017-07-29T04:47:40.508Z,974
2017-07-29T04:48:50.779Z,974.03
2017-07-29T04:50:00.747Z,974.01
2017-07-29T04:51:10.730Z,974.01
2017-07-29T04:52:21.000Z,974.01
2017-07-29T04:53:31.271Z,974.02
2017-07-29T04:54:40.909Z,974.01
2017-07-29T04:55:51.183Z,974.05
2017-07-29T04:57:01.456Z,974.06
2017-07-29T04:58:11.414Z,974.06
2017-07-29T04:59:21.686Z,974.07
2017-07-29T05:00:31.954Z,974.1
2017-07-29T05:01:41.911Z,974.09
2017-07-29T05:02:52.176Z,974.11
2017-07-29T05:04:02.452Z,974.13
2017-07-29T05:05:12.723Z,974.1
2017-07-29T05:06:22.993Z,974.08
2017-07-29T05:07:33.264Z,974.11
2017-07-29T05:08:43.542Z,974.05
2017-07-29T05:09:53.807Z,974.09
2017-07-29T05:11:04.077Z,974.09
2017-07-29T05:12:14.353Z,974.09
2017-07-29T05:13:24.305Z,974.12
2017-07-29T05:14:34.582Z,974.13
2017-07-29T05:15:44.544Z,974.13
2017-07-29T05:16:54.816Z,974.15
2017-07-29T05:18:05.089Z,974.15
2017-07-29T05:19:15.365Z,974.17
2017-07-29T05:20:25.632Z,974.16
2017-07-29T05:21:35.898Z,974.1
2017-07-29T05:22:46.165Z,974.13
2017-07-29T05:23:56.115Z,974.08
2017-07-29T05:25:06.388Z,974.04
2017-07-29T05:26:16.666Z,974.04
2017-07-29T05:27:26.938Z,974.04
2017-07-29T05:28:36.890Z,974.05
2017-07-29T05:29:47.172Z,974.03
2017-07-29T05:30:57.132Z,974.06
2017-07-29T05:32:07.085Z,974.05
2017-07-29T05:33:17.037Z,974.08
2017-07-29T05:34:26.992Z,974.07
2017-07-29T05:35:37.263Z,974.11
2017-07-29T05:36:47.229Z,974.11
2017-07-29T05:37:57.494Z,974.06
2017-07-29T05:39:07.761Z,974.08
2017-07-29T05:40:18.028Z,974.08
2017-07-29T05:41:28.291Z,974.07
2017-07-29T05:42:38.560Z,974.06
2017-07-29T05:43:48.833Z,974.04
2017-07-29T05:44:59.102Z,974.02
2017-07-29T05:46:09.381Z,974.07
2017-07-29T05:47:19.649Z,974.04
2017-07-29T05:48:29.601Z,974.04
2017-07-29T05:49:39.555Z,974.07
2017-07-29T05:50:49.829Z,974.06
2017-07-29T05:51:59.785Z,974.08
2017-07-29T05:53:09.744Z,974.1
2017-07-29T05:54:19.697Z,974.1
2017-07-29T05:55:29.962Z,974.13
2017-07-29T05:56:39.603Z,974.08
2017-07-29T05:57:49.873Z,974.1
2017-07-29T05:59:00.141Z,974.06
2017-07-29T06:00:10.095Z,974.08
2017-07-29T06:01:20.368Z,974.09
2017-07-29T06:02:30.009Z,974.07
2017-07-29T06:03:40.283Z,974.01
2017-07-29T06:04:50.554Z,974.06
2017-07-29T06:06:00.513Z,974.03
2017-07-29T06:07:10.155Z,974.06
2017-07-29T06:08:20.107Z,974.06
2017-07-29T06:09:30.075Z,974.08
2017-07-29T06:10:40.347Z,974.07
2017-07-29T06:11:50.321Z,974.04
2017-07-29T06:13:00.605Z,974.02
2017-07-29T06:14:10.244Z,973.99
2017-07-29T06:15:19.886Z,973.96
2017-07-29T06:16:30.154Z,973.95
2017-07-29T06:17:40.432Z,973.94
2017-07-29T06:18:50.701Z,973.92
2017-07-29T06:20:00.973Z,973.89
2017-07-29T06:21:10.930Z,973.85
2017-07-29T06:22:21.208Z,973.83
2017-07-29T06:23:31.171Z,973.86
2017-07-29T06:24:41.438Z,973.87
2017-07-29T06:25:51.706Z,973.91
2017-07-29T06:27:01.982Z,973.93
2017-07-29T06:28:12.253Z,973.93
2017-07-29T06:29:22.526Z,973.96
2017-07-29T06:30:32.797Z,973.96
2017-07-29T06:31:42.445Z,973.97
2017-07-29T06:32:52.714Z,974.03
2017-07-29T06:34:03.007Z,974.03
2017-07-29T06:35:12.970Z,974.02
2017-07-29T06:36:23.240Z,974.02
2017-07-29T06:37:33.516Z,974.03
2017-07-29T06:38:43.482Z,974.08
2017-07-29T06:39:53.758Z,974.11
2017-07-29T06:41:04.037Z,974.09
2017-07-29T06:42:14.311Z,974.11
2017-07-29T06:43:24.584Z,974.11
2017-07-29T06:44:34.548Z,974.09
2017-07-29T06:45:44.504Z,974.1
2017-07-29T06:46:54.461Z,974.1
2017-07-29T06:48:04.740Z,974.12
2017-07-29T06:49:14.413Z,974.11
2017-07-29T06:50:24.694Z,974.12
2017-07-29T06:51:34.653Z,974.14
2017-07-29T06:52:44.920Z,974.14
2017-07-29T06:53:55.191Z,974.19
2017-07-29T06:55:05.465Z,974.21
2017-07-29T06:56:15.433Z,974.22
2017-07-29T06:57:25.704Z,974.22
2017-07-29T06:58:35.999Z,974.23
2017-07-29T06:59:46.269Z,974.23
2017-07-29T07:00:56.552Z,974.26
2017-07-29T07:02:06.517Z,974.21
2017-07-29T07:03:16.508Z,974.2
2017-07-29T07:04:26.808Z,974.24
2017-07-29T07:05:37.114Z,974.21
2017-07-29T07:06:47.385Z,974.22
2017-07-29T07:07:57.656Z,974.2
2017-07-29T07:09:07.629Z,974.21
2017-07-29T07:10:17.915Z,974.21
2017-07-29T07:11:28.189Z,974.18
2017-07-29T07:12:38.466Z,974.16
2017-07-29T07:13:48.444Z,974.16
2017-07-29T07:14:58.719Z,974.18
2017-07-29T07:16:08.987Z,974.23
2017-07-29T07:17:18.952Z,974.21
2017-07-29T07:18:29.225Z,974.25
2017-07-29T07:19:39.505Z,974.26
2017-07-29T07:20:49.778Z,974.21
2017-07-29T07:21:59.736Z,974.21
2017-07-29T07:23:10.018Z,974.22
2017-07-29T07:24:20.283Z,974.21
2017-07-29T07:25:30.552Z,974.22
2017-07-29T07:26:40.820Z,974.18
2017-07-29T07:27:51.089Z,974.23
2017-07-29T07:29:01.359Z,974.23
2017-07-29T07:30:11.628Z,974.27
2017-07-29T07:31:21.894Z,974.24
2017-07-29T07:32:32.209Z,974.22
2017-07-29T07:33:42.167Z,974.26
2017-07-29T07:34:52.443Z,974.25
2017-07-29T07:36:02.721Z,974.22
2017-07-29T07:37:12.683Z,974.18
2017-07-29T07:38:22.952Z,974.2
2017-07-29T07:39:32.929Z,974.22
2017-07-29T07:40:42.886Z,974.19
2017-07-29T07:41:53.161Z,974.2
2017-07-29T07:43:03.118Z,974.23
2017-07-29T07:44:12.775Z,974.22
2017-07-29T07:45:23.067Z,974.22
2017-07-29T07:46:33.340Z,974.2
2017-07-29T07:47:43.303Z,974.23
2017-07-29T07:48:53.258Z,974.21
2017-07-29T07:50:03.525Z,974.18
2017-07-29T07:51:13.495Z,974.24
2017-07-29T07:52:23.764Z,974.28
2017-07-29T07:53:34.035Z,974.28
2017-07-29T07:54:44.310Z,974.28
2017-07-29T07:55:54.584Z,974.28
2017-07-29T07:57:04.538Z,974.34
2017-07-29T07:58:14.814Z,974.31
2017-07-29T07:59:25.087Z,974.3
2017-07-29T08:00:35.361Z,974.34
2017-07-29T08:01:45.641Z,974.33
2017-07-29T08:02:55.599Z,974.31
2017-07-29T08:04:05.562Z,974.33
2017-07-29T08:05:15.833Z,974.36
2017-07-29T08:06:25.795Z,974.33
2017-07-29T08:07:36.068Z,974.37
2017-07-29T08:08:46.344Z,974.39
2017-07-29T08:09:56.611Z,974.42
2017-07-29T08:11:06.270Z,974.41
2017-07-29T08:12:16.539Z,974.37
2017-07-29T08:13:26.816Z,974.41
2017-07-29T08:14:36.774Z,974.46
2017-07-29T08:15:47.053Z,974.39
2017-07-29T08:16:57.322Z,974.4
2017-07-29T08:18:07.591Z,974.39
2017-07-29T08:19:17.862Z,974.36
2017-07-29T08:20:28.134Z,974.39
2017-07-29T08:21:38.093Z,974.43
2017-07-29T08:22:48.055Z,974.41
2017-07-29T08:23:58.327Z,974.43
2017-07-29T08:25:08.600Z,974.43
2017-07-29T08:26:18.870Z,974.45
2017-07-29T08:27:29.137Z,974.42
2017-07-29T08:28:39.407Z,974.49
2017-07-29T08:29:49.368Z,974.44
2017-07-29T08:30:59.320Z,974.47
2017-07-29T08:32:09.595Z,974.47
2017-07-29T08:33:19.869Z,974.43
2017-07-29T08:34:29.826Z,974.4
2017-07-29T08:35:39.788Z,974.4
2017-07-29T08:36:49.740Z,974.44
2017-07-29T08:38:00.019Z,974.41
2017-07-29T08:39:09.989Z,974.43
2017-07-29T08:40:20.258Z,974.42
2017-07-29T08:41:30.530Z,974.39
2017-07-29T08:42:40.493Z,974.38
2017-07-29T08:43:50.777Z,974.41
2017-07-29T08:45:00.734Z,974.38
2017-07-29T08:46:11.007Z,974.39
2017-07-29T08:47:21.411Z,974.45
2017-07-29T08:48:31.370Z,974.41
2017-07-29T08:49:41.637Z,974.42
2017-07-29T08:50:51.915Z,974.38
2017-07-29T08:52:02.192Z,974.39
2017-07-29T08:53:12.210Z,974.44
2017-07-29T08:54:22.189Z,974.44
2017-07-29T08:55:32.473Z,974.47
2017-07-29T08:56:42.747Z,974.48
2017-07-29T08:57:52.708Z,974.41
2017-07-29T08:59:02.982Z,974.43
2017-07-29T09:00:13.250Z,974.44
2017-07-29T09:01:23.212Z,974.44
2017-07-29T09:02:33.486Z,974.43
2017-07-29T09:03:43.757Z,974.43
2017-07-29T09:04:54.043Z,974.42
2017-07-29T09:06:04.323Z,974.45
2017-07-29T09:07:14.591Z,974.43
2017-07-29T09:08:24.860Z,974.43
2017-07-29T09:09:35.149Z,974.45
2017-07-29T09:10:45.104Z,974.47
2017-07-29T09:11:55.379Z,974.51
2017-07-29T09:13:05.026Z,974.52
2017-07-29T09:14:14.981Z,974.46
2017-07-29T09:15:24.940Z,974.52
2017-07-29T09:16:34.895Z,974.51
2017-07-29T09:17:44.850Z,974.51
2017-07-29T09:18:55.119Z,974.5
2017-07-29T09:20:05.393Z,974.54
2017-07-29T09:21:14.823Z,974.56
2017-07-29T09:22:24.166Z,974.53
2017-07-29T09:23:34.437Z,974.52
2017-07-29T09:24:44.714Z,974.51
2017-07-29T09:25:54.998Z,974.53
2017-07-29T09:27:05.275Z,974.54
2017-07-29T09:28:15.549Z,974.5
2017-07-29T09:29:25.824Z,974.47
2017-07-29T09:30:35.466Z,974.48
2017-07-29T09:31:45.740Z,974.5
2017-07-29T09:32:55.712Z,974.47
2017-07-29T09:34:05.677Z,974.43
2017-07-29T09:35:15.950Z,974.41
2017-07-29T09:36:25.907Z,974.43
2017-07-29T09:37:35.552Z,974.45
2017-07-29T09:38:45.829Z,974.41
2017-07-29T09:39:55.789Z,974.42
2017-07-29T09:41:06.066Z,974.4
2017-07-29T09:42:16.037Z,974.44
2017-07-29T09:43:26.315Z,974.45
2017-07-29T09:44:36.268Z,974.41
2017-07-29T09:45:46.543Z,974.42
2017-07-29T09:46:56.814Z,974.45
2017-07-29T09:48:07.094Z,974.4
2017-07-29T09:49:17.369Z,974.42
2017-07-29T09:50:27.331Z,974.4
2017-07-29T09:51:37.603Z,974.4
2017-07-29T09:52:47.561Z,974.39
2017-07-29T09:53:57.533Z,974.44
2017-07-29T09:55:07.528Z,974.42
2017-07-29T09:56:17.494Z,974.44
2017-07-29T09:57:27.773Z,974.46
2017-07-29T09:58:37.730Z,974.47
2017-07-29T09:59:48.002Z,974.43
2017-07-29T10:00:57.962Z,974.43
2017-07-29T10:02:08.237Z,974.37
2017-07-29T10:03:18.510Z,974.36
2017-07-29T10:04:28.477Z,974.3
2017-07-29T10:05:38.757Z,974.28
2017-07-29T10:06:49.026Z,974.29
2017-07-29T10:07:59.299Z,974.25
2017-07-29T10:09:09.572Z,974.28
2017-07-29T10:10:19.840Z,974.27
2017-07-29T10:11:29.798Z,974.27
2017-07-29T10:12:39.754Z,974.26
2017-07-29T10:13:49.716Z,974.26
2017-07-29T10:14:59.999Z,974.27
2017-07-29T10:16:09.970Z,974.27
2017-07-29T10:17:18.989Z,974.26
2017-07-29T10:18:29.273Z,974.27
2017-07-29T10:19:39.545Z,974.28
2017-07-29T10:20:49.825Z,974.29
2017-07-29T10:22:00.098Z,974.27
2017-07-29T10:23:10.370Z,974.23
2017-07-29T10:24:20.647Z,974.22
2017-07-29T10:25:30.619Z,974.24
2017-07-29T10:26:40.911Z,974.3
2017-07-29T10:27:50.877Z,974.31
2017-07-29T10:29:00.837Z,974.28
2017-07-29T10:30:10.799Z,974.24
2017-07-29T10:31:20.758Z,974.24
2017-07-29T10:32:31.064Z,974.23
2017-07-29T10:33:41.022Z,974.21
2017-07-29T10:34:51.299Z,974.23
2017-07-29T10:36:00.942Z,974.22
2017-07-29T10:37:10.594Z,974.17
2017-07-29T10:38:20.869Z,974.21
2017-07-29T10:39:31.152Z,974.18
2017-07-29T10:40:41.425Z,974.17
2017-07-29T10:41:51.082Z,974.1
2017-07-29T10:43:01.041Z,974.09
2017-07-29T10:44:11.321Z,974.08
2017-07-29T10:45:21.279Z,974.06
2017-07-29T10:46:31.244Z,974.08
2017-07-29T10:47:41.219Z,974.07
2017-07-29T10:48:51.180Z,974.08
2017-07-29T10:50:01.137Z,974.07
2017-07-29T10:51:10.784Z,974.06
2017-07-29T10:52:21.060Z,974.1
2017-07-29T10:53:31.043Z,974.14
2017-07-29T10:54:41.002Z,974.11
2017-07-29T10:55:51.272Z,974.12
2017-07-29T10:57:01.598Z,974.11
2017-07-29T10:58:11.569Z,974.13
2017-07-29T10:59:21.844Z,974.09
2017-07-29T11:00:32.125Z,974.09
2017-07-29T11:01:42.405Z,974.09
2017-07-29T11:02:52.681Z,974.07
2017-07-29T11:04:02.326Z,974.09
2017-07-29T11:05:12.603Z,974.08
2017-07-29T11:06:22.560Z,974.1
2017-07-29T11:07:32.523Z,974.07
2017-07-29T11:08:42.485Z,974.06
2017-07-29T11:09:52.757Z,974.04
2017-07-29T11:11:02.723Z,974.01
2017-07-29T11:12:12.684Z,974.03
2017-07-29T11:13:22.962Z,974.03
2017-07-29T11:14:32.923Z,974.07
2017-07-29T11:15:42.884Z,974.06
2017-07-29T11:16:52.845Z,974.09
2017-07-29T11:18:03.122Z,974.06
2017-07-29T11:19:12.454Z,974
2017-07-29T11:20:22.736Z,974.03
2017-07-29T11:21:32.699Z,974
2017-07-29T11:22:42.667Z,973.98
2017-07-29T11:23:52.947Z,973.99
2017-07-29T11:25:02.910Z,973.97
2017-07-29T11:26:13.183Z,974.04
2017-07-29T11:27:23.140Z,974
2017-07-29T11:28:32.797Z,974
2017-07-29T11:29:43.074Z,974
2017-07-29T11:30:53.348Z,974.01
2017-07-29T11:32:03.616Z,974
2017-07-29T11:33:13.264Z,973.98
2017-07-29T11:34:23.555Z,973.96
2017-07-29T11:35:33.513Z,974
2017-07-29T11:36:43.478Z,974.02
2017-07-29T11:37:53.123Z,974.04
2017-07-29T11:39:03.103Z,974.05
2017-07-29T11:40:13.062Z,974.06
2017-07-29T11:41:23.342Z,974.03
2017-07-29T11:42:33.628Z,974.01
2017-07-29T11:43:43.907Z,973.98
2017-07-29T11:44:54.178Z,973.97
2017-07-29T11:46:04.457Z,974.01
2017-07-29T11:47:14.732Z,974.01
2017-07-29T11:48:24.711Z,973.99
2017-07-29T11:49:34.990Z,973.97
2017-07-29T11:50:44.635Z,973.98
2017-07-29T11:51:54.906Z,973.99
2017-07-29T11:53:05.182Z,973.95
2017-07-29T11:54:15.145Z,973.96
2017-07-29T11:55:25.450Z,974
2017-07-29T11:56:35.405Z,973.96
2017-07-29T11:57:45.052Z,973.95
2017-07-29T11:58:55.007Z,974.01
2017-07-29T12:00:05.281Z,973.98
2017-07-29T12:01:15.236Z,974.03
2017-07-29T12:02:25.196Z,974.02
2017-07-29T12:03:35.208Z,974.05
2017-07-29T12:04:45.173Z,974.03
2017-07-29T12:05:55.458Z,974.05
2017-07-29T12:07:05.746Z,974.07
2017-07-29T12:08:16.042Z,974.09
2017-07-29T12:09:26.102Z,974.15
2017-07-29T12:10:36.381Z,974.13
2017-07-29T12:11:46.656Z,974.16
2017-07-29T12:12:56.618Z,974.19
2017-07-29T12:14:06.573Z,974.11
2017-07-29T12:15:16.857Z,974.11
2017-07-29T12:16:27.130Z,974.12
2017-07-29T12:17:37.094Z,974.07
2017-07-29T12:18:47.062Z,974.06
2017-07-29T12:19:57.336Z,974.05
2017-07-29T12:21:07.291Z,974.1
2017-07-29T12:22:17.557Z,974.08
2017-07-29T12:23:27.520Z,974.09
2017-07-29T12:24:37.795Z,974.13
2017-07-29T12:25:47.776Z,974.11
2017-07-29T12:26:58.044Z,974.19
2017-07-29T12:28:08.015Z,974.17
2017-07-29T12:29:17.972Z,974.15
2017-07-29T12:30:28.239Z,974.16
2017-07-29T12:31:38.513Z,974.11
2017-07-29T12:32:48.786Z,974.09
2017-07-29T12:33:58.747Z,974.05
2017-07-29T12:35:09.027Z,974.06
2017-07-29T12:36:19.303Z,974.06
2017-07-29T12:37:28.953Z,974.07
2017-07-29T12:38:39.231Z,974.05
2017-07-29T12:39:49.510Z,974.08
2017-07-29T12:40:59.785Z,974.06
2017-07-29T12:42:10.060Z,974.06
2017-07-29T12:43:20.045Z,974.03
2017-07-29T12:44:30.319Z,974.01
2017-07-29T12:45:40.302Z,973.99
2017-07-29T12:46:50.262Z,974.01
2017-07-29T12:48:00.221Z,973.99
2017-07-29T12:49:10.185Z,973.94
2017-07-29T12:50:20.463Z,973.97
2017-07-29T12:51:30.425Z,974
2017-07-29T12:52:40.396Z,973.94
2017-07-29T12:53:50.675Z,973.93
2017-07-29T12:55:00.952Z,973.98
2017-07-29T12:56:11.227Z,973.98
2017-07-29T12:57:21.499Z,974
2017-07-29T12:58:31.143Z,974.01
2017-07-29T12:59:41.110Z,974.02
2017-07-29T13:00:51.071Z,974.05
2017-07-29T13:02:01.352Z,974.01
2017-07-29T13:03:11.314Z,974.05
2017-07-29T13:04:21.589Z,974.04
2017-07-29T13:05:31.555Z,974
2017-07-29T13:06:41.836Z,973.99
2017-07-29T13:07:52.112Z,974.02
2017-07-29T13:09:02.386Z,974
2017-07-29T13:10:12.659Z,973.99
2017-07-29T13:11:22.619Z,974.02
2017-07-29T13:12:32.891Z,974.03
2017-07-29T13:13:42.853Z,974.03
2017-07-29T13:14:53.131Z,974.04
2017-07-29T13:16:03.091Z,974.06
2017-07-29T13:17:13.051Z,974.09
2017-07-29T13:18:23.319Z,974.06
2017-07-29T13:19:33.591Z,974.04
2017-07-29T13:20:43.558Z,974.04
2017-07-29T13:21:53.839Z,974
2017-07-29T13:23:03.792Z,974.02
2017-07-29T13:24:13.441Z,974.01
2017-07-29T13:25:24.021Z,974.06
2017-07-29T13:26:34.298Z,974
2017-07-29T13:27:44.573Z,974.04
2017-07-29T13:28:54.844Z,974.03
2017-07-29T13:30:05.142Z,974.02
2017-07-29T13:31:15.417Z,973.96
2017-07-29T13:32:25.380Z,973.96
2017-07-29T13:33:35.337Z,973.97
2017-07-29T13:34:45.632Z,973.99
2017-07-29T13:35:55.906Z,973.96
2017-07-29T13:37:05.867Z,973.97
2017-07-29T13:38:15.829Z,973.96
2017-07-29T13:39:26.114Z,973.96
2017-07-29T13:40:36.077Z,973.99
2017-07-29T13:41:46.042Z,974
2017-07-29T13:42:56.316Z,974.01
2017-07-29T13:44:06.594Z,974.05
2017-07-29T13:45:16.553Z,973.99
2017-07-29T13:46:26.825Z,974.03
2017-07-29T13:47:36.789Z,974
2017-07-29T13:48:47.063Z,974.02
2017-07-29T13:49:57.027Z,973.99
2017-07-29T13:51:06.988Z,974.01
2017-07-29T13:52:17.267Z,974.03
2017-07-29T13:53:27.228Z,973.99
2017-07-29T13:54:37.505Z,973.99
2017-07-29T13:55:47.778Z,974.35
2017-07-29T13:56:58.058Z,974.48
2017-07-29T13:58:08.021Z,974.22
2017-07-29T13:59:18.305Z,974.21
2017-07-29T14:00:28.275Z,973.9
2017-07-29T14:01:38.239Z,973.82
2017-07-29T14:02:47.895Z,973.78
2017-07-29T14:03:58.190Z,973.76
2017-07-29T14:05:07.850Z,973.76
2017-07-29T14:06:17.816Z,973.74
2017-07-29T14:07:28.091Z,973.74
2017-07-29T14:08:38.055Z,973.7
2017-07-29T14:09:48.338Z,973.72
2017-07-29T14:10:58.618Z,973.71
2017-07-29T14:12:08.579Z,973.72
2017-07-29T14:13:18.857Z,973.65
2017-07-29T14:14:29.137Z,973.79
2017-07-29T14:15:39.414Z,973.79
2017-07-29T14:16:49.692Z,973.76
2017-07-29T14:17:59.971Z,973.75
2017-07-29T14:19:10.252Z,973.79
2017-07-29T14:20:20.220Z,973.81
2017-07-29T14:21:30.497Z,973.88
2017-07-29T14:22:40.827Z,973.82
2017-07-29T14:23:51.111Z,974
2017-07-29T14:25:00.770Z,973.82
2017-07-29T14:26:10.420Z,973.75
2017-07-29T14:27:20.698Z,973.8
2017-07-29T14:28:30.654Z,973.77
2017-07-29T14:29:40.616Z,973.7
2017-07-29T14:30:50.897Z,973.65
2017-07-29T14:32:00.855Z,973.66
2017-07-29T14:33:10.505Z,973.66
2017-07-29T14:34:20.474Z,973.65
2017-07-29T14:35:30.433Z,973.67
2017-07-29T14:36:40.718Z,973.66
2017-07-29T14:37:51.003Z,973.64
2017-07-29T14:39:00.986Z,973.6
2017-07-29T14:40:11.257Z,973.61
2017-07-29T14:41:21.528Z,973.58